sensor_id;sensor_type;location;lat;lon;timestamp;pressure;altitude;pressure_sealevel;temperature;humidity
20620;BME280;10469;42.720;23.252;2023-04-09T00:50:20;95129.34;;;6.68;100.00
20620;BME280;10469;42.720;23.252;2023-04-09T00:52:55;95103.72;;;6.67;100.00
20620;BME280;10469;42.720;23.252;2023-04-09T00:55:21;95113.16;;;6.50;100.00
20620;BME280;10469;42.720;23.252;2023-04-09T00:57:48;95117.25;;;6.26;100.00
20620;BME280;10469;42.720;23.252;2023-04-09T01:00:14;95110.91;;;6.27;100.00
20620;BME280;10469;42.720;23.252;2023-04-09T01:02:41;95118.69;;;6.22;100.00
20620;BME280;10469;42.720;23.252;2023-04-09T01:46:29;95100.25;;;6.40;100.00
20620;BME280;10469;42.720;23.252;2023-04-09T01:48:56;95091.44;;;6.46;100.00
20620;BME280;10469;42.720;23.252;2023-04-09T01:51:25;95051.06;;;6.16;100.00
20620;BME280;10469;42.720;23.252;2023-04-09T01:53:51;95077.31;;;6.19;100.00
20620;BME280;10469;42.720;23.252;2023-04-09T01:56:17;95052.72;;;6.04;100.00
20620;BME280;10469;42.720;23.252;2023-04-09T01:58:43;95092.06;;;6.35;100.00
20620;BME280;10469;42.720;23.252;2023-04-09T02:01:13;95100.88;;;6.49;100.00
20620;BME280;10469;42.720;23.252;2023-04-09T02:03:54;95106.41;;;6.54;100.00
20620;BME280;10469;42.720;23.252;2023-04-09T02:06:47;95067.06;;;6.29;100.00
20620;BME280;10469;42.720;23.252;2023-04-09T02:09:17;95128.53;;;6.48;100.00
20620;BME280;10469;42.720;23.252;2023-04-09T02:37:46;95140.19;;;6.47;100.00
20620;BME280;10469;42.720;23.252;2023-04-09T02:40:11;95130.97;;;6.29;100.00
20620;BME280;10469;42.720;23.252;2023-04-09T02:42:37;95131.59;;;6.45;100.00
20620;BME280;10469;42.720;23.252;2023-04-09T02:45:03;95110.91;;;6.20;100.00
20620;BME280;10469;42.720;23.252;2023-04-09T02:47:29;95131.38;;;6.20;100.00
20620;BME280;10469;42.720;23.252;2023-04-09T02:49:55;95126.88;;;6.20;100.00
20620;BME280;10469;42.720;23.252;2023-04-09T02:52:21;95122.56;;;6.19;100.00
20620;BME280;10469;42.720;23.252;2023-04-09T02:54:53;95121.50;;;5.94;100.00
20620;BME280;10469;42.720;23.252;2023-04-09T02:57:19;95102.88;;;5.94;100.00
20620;BME280;10469;42.720;23.252;2023-04-09T02:59:45;95109.59;;;5.90;100.00
20620;BME280;10469;42.720;23.252;2023-04-09T03:02:11;95117.38;;;5.85;100.00
20620;BME280;10469;42.720;23.252;2023-04-09T03:04:37;95123.97;;;5.95;100.00
20620;BME280;10469;42.720;23.252;2023-04-09T03:07:03;95124.31;;;5.86;100.00
20620;BME280;10469;42.720;23.252;2023-04-09T03:09:29;95108.75;;;5.76;100.00
20620;BME280;10469;42.720;23.252;2023-04-09T03:11:55;95130.41;;;5.73;100.00
20620;BME280;10469;42.720;23.252;2023-04-09T03:14:24;95129.63;;;5.79;100.00
20620;BME280;10469;42.720;23.252;2023-04-09T03:16:50;95129.03;;;5.84;100.00
20620;BME280;10469;42.720;23.252;2023-04-09T03:19:15;95123.00;;;5.55;100.00
20620;BME280;10469;42.720;23.252;2023-04-09T03:21:41;95109.44;;;5.43;100.00
20620;BME280;10469;42.720;23.252;2023-04-09T03:24:07;95114.97;;;5.42;100.00
20620;BME280;10469;42.720;23.252;2023-04-09T03:26:33;95121.88;;;5.29;100.00
20620;BME280;10469;42.720;23.252;2023-04-09T03:29:04;95126.22;;;5.44;100.00
20620;BME280;10469;42.720;23.252;2023-04-09T03:31:30;95133.97;;;5.39;100.00
20620;BME280;10469;42.720;23.252;2023-04-09T03:33:57;95112.25;;;5.28;100.00
20620;BME280;10469;42.720;23.252;2023-04-09T03:36:22;95130.31;;;5.40;100.00
20620;BME280;10469;42.720;23.252;2023-04-09T03:38:48;95122.25;;;5.20;100.00
20620;BME280;10469;42.720;23.252;2023-04-09T03:41:14;95128.59;;;5.19;100.00
20620;BME280;10469;42.720;23.252;2023-04-09T03:43:40;95128.75;;;5.11;100.00
20620;BME280;10469;42.720;23.252;2023-04-09T03:46:16;95128.38;;;5.20;100.00
20620;BME280;10469;42.720;23.252;2023-04-09T03:48:43;95122.78;;;5.09;100.00
20620;BME280;10469;42.720;23.252;2023-04-09T03:51:13;95136.72;;;5.17;100.00
20620;BME280;10469;42.720;23.252;2023-04-09T03:53:40;95140.84;;;5.20;100.00
20620;BME280;10469;42.720;23.252;2023-04-09T03:56:06;95132.44;;;5.16;100.00
20620;BME280;10469;42.720;23.252;2023-04-09T03:58:32;95094.81;;;4.78;100.00
20620;BME280;10469;42.720;23.252;2023-04-09T04:00:58;95144.09;;;5.15;100.00
20620;BME280;10469;42.720;23.252;2023-04-09T04:03:24;95134.28;;;5.16;100.00
20620;BME280;10469;42.720;23.252;2023-04-09T04:05:50;95149.47;;;5.28;100.00
20620;BME280;10469;42.720;23.252;2023-04-09T04:08:15;95154.16;;;5.26;100.00
20620;BME280;10469;42.720;23.252;2023-04-09T04:10:41;95140.41;;;5.16;100.00
20620;BME280;10469;42.720;23.252;2023-04-09T04:13:07;95146.59;;;5.23;100.00
20620;BME280;10469;42.720;23.252;2023-04-09T04:15:35;95134.72;;;5.19;100.00
20620;BME280;10469;42.720;23.252;2023-04-09T04:18:03;95152.75;;;5.31;100.00
20620;BME280;10469;42.720;23.252;2023-04-09T04:20:31;95147.03;;;5.27;100.00
20620;BME280;10469;42.720;23.252;2023-04-09T04:22:57;95146.19;;;5.26;100.00
20620;BME280;10469;42.720;23.252;2023-04-09T04:25:23;95154.59;;;5.30;100.00
20620;BME280;10469;42.720;23.252;2023-04-09T04:27:49;95138.41;;;5.25;100.00
20620;BME280;10469;42.720;23.252;2023-04-09T04:30:15;95142.97;;;5.31;100.00
20620;BME280;10469;42.720;23.252;2023-04-09T04:32:41;95113.63;;;5.18;100.00
20620;BME280;10469;42.720;23.252;2023-04-09T04:35:07;95151.97;;;5.37;100.00
20620;BME280;10469;42.720;23.252;2023-04-09T04:37:33;95133.16;;;5.32;100.00
20620;BME280;10469;42.720;23.252;2023-04-09T04:40:01;95157.72;;;5.40;100.00
20620;BME280;10469;42.720;23.252;2023-04-09T04:42:28;95153.28;;;5.54;100.00
20620;BME280;10469;42.720;23.252;2023-04-09T04:44:55;95141.03;;;5.60;100.00
20620;BME280;10469;42.720;23.252;2023-04-09T04:47:21;95145.59;;;5.79;100.00
20620;BME280;10469;42.720;23.252;2023-04-09T04:49:47;95130.38;;;5.60;100.00
20620;BME280;10469;42.720;23.252;2023-04-09T04:52:12;95156.09;;;5.94;100.00
20620;BME280;10469;42.720;23.252;2023-04-09T04:54:38;95130.56;;;6.33;100.00
20620;BME280;10469;42.720;23.252;2023-04-09T04:57:05;95157.03;;;6.67;100.00
20620;BME280;10469;42.720;23.252;2023-04-09T04:59:31;95144.13;;;6.58;100.00
20620;BME280;10469;42.720;23.252;2023-04-09T05:01:56;95138.16;;;6.95;100.00
20620;BME280;10469;42.720;23.252;2023-04-09T05:04:22;95137.47;;;7.20;100.00
20620;BME280;10469;42.720;23.252;2023-04-09T05:06:48;95148.22;;;7.58;100.00
20620;BME280;10469;42.720;23.252;2023-04-09T05:09:16;95134.75;;;7.91;100.00
20620;BME280;10469;42.720;23.252;2023-04-09T05:11:42;95148.13;;;8.23;100.00
20620;BME280;10469;42.720;23.252;2023-04-09T05:14:08;95121.47;;;8.73;100.00
20620;BME280;10469;42.720;23.252;2023-04-09T05:16:33;95138.31;;;9.42;100.00
20620;BME280;10469;42.720;23.252;2023-04-09T05:18:59;95127.84;;;9.15;100.00
20620;BME280;10469;42.720;23.252;2023-04-09T05:21:29;95123.00;;;9.05;100.00
20620;BME280;10469;42.720;23.252;2023-04-09T05:23:59;95036.75;;;8.48;100.00
20620;BME280;10469;42.720;23.252;2023-04-09T05:26:27;95067.25;;;8.84;100.00
20620;BME280;10469;42.720;23.252;2023-04-09T05:29:11;95129.94;;;9.32;100.00
20620;BME280;10469;42.720;23.252;2023-04-09T05:31:38;95027.84;;;8.54;100.00
20620;BME280;10469;42.720;23.252;2023-04-09T05:34:04;95133.38;;;9.20;100.00
20620;BME280;10469;42.720;23.252;2023-04-09T05:36:31;95095.16;;;8.70;100.00
20620;BME280;10469;42.720;23.252;2023-04-09T05:38:57;95085.38;;;8.64;100.00
20620;BME280;10469;42.720;23.252;2023-04-09T05:41:23;95113.09;;;8.63;100.00
20620;BME280;10469;42.720;23.252;2023-04-09T05:43:49;95132.56;;;8.76;100.00
20620;BME280;10469;42.720;23.252;2023-04-09T05:46:18;95132.91;;;9.23;100.00
20620;BME280;10469;42.720;23.252;2023-04-09T05:48:45;95134.03;;;9.71;100.00
20620;BME280;10469;42.720;23.252;2023-04-09T05:51:13;95132.19;;;9.53;100.00
20620;BME280;10469;42.720;23.252;2023-04-09T05:53:41;95131.16;;;8.92;100.00
20620;BME280;10469;42.720;23.252;2023-04-09T05:56:14;95101.41;;;8.64;100.00
20620;BME280;10469;42.720;23.252;2023-04-09T05:58:42;95134.19;;;9.21;100.00
20620;BME280;10469;42.720;23.252;2023-04-09T06:01:08;95132.34;;;9.40;100.00
20620;BME280;10469;42.720;23.252;2023-04-09T06:03:34;95135.75;;;9.65;100.00
20620;BME280;10469;42.720;23.252;2023-04-09T06:06:00;95110.22;;;9.81;100.00
20620;BME280;10469;42.720;23.252;2023-04-09T06:08:32;95097.09;;;9.91;100.00
20620;BME280;10469;42.720;23.252;2023-04-09T06:10:58;95121.31;;;10.15;100.00
20620;BME280;10469;42.720;23.252;2023-04-09T06:13:24;95131.97;;;9.36;100.00
20620;BME280;10469;42.720;23.252;2023-04-09T06:15:49;95113.94;;;10.28;100.00
20620;BME280;10469;42.720;23.252;2023-04-09T06:18:15;95124.84;;;11.74;100.00
20620;BME280;10469;42.720;23.252;2023-04-09T06:20:43;95121.13;;;12.33;100.00
20620;BME280;10469;42.720;23.252;2023-04-09T06:23:09;95126.22;;;13.47;100.00
20620;BME280;10469;42.720;23.252;2023-04-09T06:25:35;95113.19;;;13.05;100.00
20620;BME280;10469;42.720;23.252;2023-04-09T06:28:02;95101.63;;;13.60;100.00
20620;BME280;10469;42.720;23.252;2023-04-09T06:30:28;95122.59;;;14.02;100.00
20620;BME280;10469;42.720;23.252;2023-04-09T06:32:54;95077.66;;;13.86;100.00
20620;BME280;10469;42.720;23.252;2023-04-09T06:35:20;95108.16;;;12.92;100.00
20620;BME280;10469;42.720;23.252;2023-04-09T06:37:45;95125.97;;;12.64;100.00
20620;BME280;10469;42.720;23.252;2023-04-09T06:40:13;95073.09;;;11.03;100.00
20620;BME280;10469;42.720;23.252;2023-04-09T06:42:39;95121.56;;;11.61;100.00
20620;BME280;10469;42.720;23.252;2023-04-09T06:45:06;95120.53;;;12.76;100.00
20620;BME280;10469;42.720;23.252;2023-04-09T06:47:33;95127.44;;;13.56;100.00
20620;BME280;10469;42.720;23.252;2023-04-09T06:50:02;95070.66;;;13.85;100.00
20620;BME280;10469;42.720;23.252;2023-04-09T06:52:29;95142.88;;;14.80;100.00
20620;BME280;10469;42.720;23.252;2023-04-09T06:54:55;95075.31;;;13.12;100.00
20620;BME280;10469;42.720;23.252;2023-04-09T06:57:20;95118.84;;;12.87;100.00
20620;BME280;10469;42.720;23.252;2023-04-09T06:59:47;95125.56;;;13.78;100.00
20620;BME280;10469;42.720;23.252;2023-04-09T07:02:13;95124.53;;;12.90;100.00
20620;BME280;10469;42.720;23.252;2023-04-09T07:04:43;95141.97;;;11.97;100.00
20620;BME280;10469;42.720;23.252;2023-04-09T07:07:09;95122.38;;;11.85;100.00
20620;BME280;10469;42.720;23.252;2023-04-09T07:09:38;95128.81;;;11.84;100.00
20620;BME280;10469;42.720;23.252;2023-04-09T07:12:04;95134.81;;;11.15;100.00
20620;BME280;10469;42.720;23.252;2023-04-09T07:14:29;95136.44;;;10.09;100.00
20620;BME280;10469;42.720;23.252;2023-04-09T07:16:55;95121.94;;;9.50;100.00
20620;BME280;10469;42.720;23.252;2023-04-09T07:19:22;95135.81;;;9.40;100.00
20620;BME280;10469;42.720;23.252;2023-04-09T07:21:47;95116.44;;;9.63;100.00
20620;BME280;10469;42.720;23.252;2023-04-09T07:24:13;95140.28;;;9.83;100.00
20620;BME280;10469;42.720;23.252;2023-04-09T07:26:39;95101.91;;;10.01;100.00
20620;BME280;10469;42.720;23.252;2023-04-09T07:29:05;95119.84;;;9.52;100.00
20620;BME280;10469;42.720;23.252;2023-04-09T07:31:32;95117.75;;;9.54;100.00
20620;BME280;10469;42.720;23.252;2023-04-09T07:33:59;95071.31;;;9.30;100.00
20620;BME280;10469;42.720;23.252;2023-04-09T07:36:25;95124.75;;;9.73;100.00
20620;BME280;10469;42.720;23.252;2023-04-09T07:38:52;95089.66;;;9.63;100.00
20620;BME280;10469;42.720;23.252;2023-04-09T07:41:18;95044.69;;;9.35;100.00
20620;BME280;10469;42.720;23.252;2023-04-09T07:43:44;95102.66;;;10.38;100.00
20620;BME280;10469;42.720;23.252;2023-04-09T07:46:17;95102.34;;;9.86;100.00
20620;BME280;10469;42.720;23.252;2023-04-09T07:48:43;95157.97;;;10.02;100.00
20620;BME280;10469;42.720;23.252;2023-04-09T07:51:09;95059.56;;;9.79;100.00
20620;BME280;10469;42.720;23.252;2023-04-09T07:53:36;95147.84;;;10.76;100.00
20620;BME280;10469;42.720;23.252;2023-04-09T07:56:02;95140.97;;;11.63;100.00
20620;BME280;10469;42.720;23.252;2023-04-09T07:58:28;95144.19;;;12.28;100.00
20620;BME280;10469;42.720;23.252;2023-04-09T08:00:54;95095.81;;;12.17;100.00
20620;BME280;10469;42.720;23.252;2023-04-09T08:03:20;95146.13;;;13.12;100.00
20620;BME280;10469;42.720;23.252;2023-04-09T08:05:46;95135.28;;;13.79;100.00
20620;BME280;10469;42.720;23.252;2023-04-09T08:08:12;95130.34;;;15.34;100.00
20620;BME280;10469;42.720;23.252;2023-04-09T08:10:38;95111.47;;;13.71;100.00
20620;BME280;10469;42.720;23.252;2023-04-09T08:13:04;95130.47;;;15.54;98.42
20620;BME280;10469;42.720;23.252;2023-04-09T08:15:30;95132.78;;;15.72;90.75
20620;BME280;10469;42.720;23.252;2023-04-09T08:17:57;95144.53;;;16.76;79.97
20620;BME280;10469;42.720;23.252;2023-04-09T08:20:22;95132.66;;;15.57;81.24
20620;BME280;10469;42.720;23.252;2023-04-09T08:22:49;95148.66;;;14.40;85.82
20620;BME280;10469;42.720;23.252;2023-04-09T08:25:18;95143.47;;;14.12;94.43
20620;BME280;10469;42.720;23.252;2023-04-09T08:27:47;95135.63;;;16.03;83.97
20620;BME280;10469;42.720;23.252;2023-04-09T08:30:15;95139.06;;;15.09;85.54
20620;BME280;10469;42.720;23.252;2023-04-09T10:05:26;95104.75;;;13.52;98.97
20620;BME280;10469;42.720;23.252;2023-04-09T10:07:56;95093.53;;;13.04;100.00
20620;BME280;10469;42.720;23.252;2023-04-09T10:10:23;95101.53;;;12.49;100.00
20620;BME280;10469;42.720;23.252;2023-04-09T10:12:50;95092.09;;;11.77;100.00
20620;BME280;10469;42.720;23.252;2023-04-09T10:15:18;95098.97;;;12.42;100.00
20620;BME280;10469;42.720;23.252;2023-04-09T10:17:44;95092.34;;;11.88;100.00
20620;BME280;10469;42.720;23.252;2023-04-09T10:20:20;95098.75;;;12.61;100.00
20620;BME280;10469;42.720;23.252;2023-04-09T10:22:49;95071.06;;;13.98;94.70
20620;BME280;10469;42.720;23.252;2023-04-09T10:25:18;95078.91;;;14.49;90.13
20620;BME280;10469;42.720;23.252;2023-04-09T10:27:58;95073.66;;;14.64;89.19
20620;BME280;10469;42.720;23.252;2023-04-09T10:30:34;95067.28;;;15.18;81.25
20620;BME280;10469;42.720;23.252;2023-04-09T10:33:14;95098.84;;;13.77;87.07
20620;BME280;10469;42.720;23.252;2023-04-09T10:35:41;95077.41;;;14.09;88.21
20620;BME280;10469;42.720;23.252;2023-04-09T10:38:08;95076.91;;;14.12;86.72
20620;BME280;10469;42.720;23.252;2023-04-09T10:40:46;95088.44;;;13.42;89.22
20620;BME280;10469;42.720;23.252;2023-04-09T10:43:13;95048.28;;;15.50;82.38
20620;BME280;10469;42.720;23.252;2023-04-09T10:45:44;95063.47;;;15.56;79.43
20620;BME280;10469;42.720;23.252;2023-04-09T10:48:12;95055.97;;;16.82;70.99
20620;BME280;10469;42.720;23.252;2023-04-09T10:50:41;95034.13;;;15.32;73.74
20620;BME280;10469;42.720;23.252;2023-04-09T10:53:22;95070.41;;;14.40;79.70
20620;BME280;10469;42.720;23.252;2023-04-09T10:55:54;95050.03;;;15.24;75.64
20620;BME280;10469;42.720;23.252;2023-04-09T10:58:20;95035.44;;;15.72;73.08
20620;BME280;10469;42.720;23.252;2023-04-09T11:00:47;95020.41;;;14.00;77.59
20620;BME280;10469;42.720;23.252;2023-04-09T11:03:25;95041.13;;;13.95;83.27
20620;BME280;10469;42.720;23.252;2023-04-09T11:06:00;95032.63;;;13.20;87.62
20620;BME280;10469;42.720;23.252;2023-04-09T11:08:28;95035.09;;;13.22;93.07
20620;BME280;10469;42.720;23.252;2023-04-09T11:10:55;95013.16;;;13.52;88.59
20620;BME280;10469;42.720;23.252;2023-04-09T11:13:23;95044.97;;;12.44;93.50
20620;BME280;10469;42.720;23.252;2023-04-09T11:15:49;95036.78;;;12.55;96.95
20620;BME280;10469;42.720;23.252;2023-04-09T11:18:28;95047.22;;;12.52;94.92
20620;BME280;10469;42.720;23.252;2023-04-09T11:20:59;95006.66;;;12.53;95.12
20620;BME280;10469;42.720;23.252;2023-04-09T11:23:26;95045.28;;;12.64;95.44
20620;BME280;10469;42.720;23.252;2023-04-09T11:25:54;95039.50;;;13.11;91.31
20620;BME280;10469;42.720;23.252;2023-04-09T11:28:22;95064.94;;;12.48;93.25
20620;BME280;10469;42.720;23.252;2023-04-09T11:30:51;95034.47;;;11.97;98.10
20620;BME280;10469;42.720;23.252;2023-04-09T11:33:19;95043.34;;;11.97;98.08
20620;BME280;10469;42.720;23.252;2023-04-09T11:35:47;95046.72;;;11.64;98.52
20620;BME280;10469;42.720;23.252;2023-04-09T11:38:14;95042.41;;;11.51;99.52
20620;BME280;10469;42.720;23.252;2023-04-09T11:40:41;95049.81;;;11.73;100.00
20620;BME280;10469;42.720;23.252;2023-04-09T11:43:14;95060.03;;;11.59;97.65
20620;BME280;10469;42.720;23.252;2023-04-09T11:45:48;95062.78;;;11.36;96.62
20620;BME280;10469;42.720;23.252;2023-04-09T11:48:19;95048.59;;;11.52;96.50
20620;BME280;10469;42.720;23.252;2023-04-09T11:50:47;95024.94;;;11.49;97.21
20620;BME280;10469;42.720;23.252;2023-04-09T11:53:15;95055.81;;;11.63;100.00
20620;BME280;10469;42.720;23.252;2023-04-09T11:55:41;95028.72;;;11.36;100.00
20620;BME280;10469;42.720;23.252;2023-04-09T11:58:09;95038.53;;;11.99;100.00
20620;BME280;10469;42.720;23.252;2023-04-09T12:00:39;95019.03;;;12.38;100.00
20620;BME280;10469;42.720;23.252;2023-04-09T12:03:05;95006.72;;;12.59;100.00
20620;BME280;10469;42.720;23.252;2023-04-09T12:05:32;95033.31;;;13.11;100.00
20620;BME280;10469;42.720;23.252;2023-04-09T12:08:03;95021.03;;;13.37;100.00
20620;BME280;10469;42.720;23.252;2023-04-09T12:10:47;95004.63;;;13.60;100.00
20620;BME280;10469;42.720;23.252;2023-04-09T12:13:19;95013.38;;;13.72;100.00
20620;BME280;10469;42.720;23.252;2023-04-09T12:15:48;95013.31;;;13.94;100.00
20620;BME280;10469;42.720;23.252;2023-04-09T12:18:14;95013.06;;;14.23;96.93
20620;BME280;10469;42.720;23.252;2023-04-09T12:20:42;95007.00;;;14.38;94.65
20620;BME280;10469;42.720;23.252;2023-04-09T12:23:10;95010.31;;;14.45;98.49
20620;BME280;10469;42.720;23.252;2023-04-09T12:25:37;95008.00;;;14.96;97.64
20620;BME280;10469;42.720;23.252;2023-04-09T12:28:05;94993.03;;;15.20;96.17
20620;BME280;10469;42.720;23.252;2023-04-09T12:30:32;94995.19;;;15.23;96.77
20620;BME280;10469;42.720;23.252;2023-04-09T12:32:58;94998.13;;;15.69;96.74
20620;BME280;10469;42.720;23.252;2023-04-09T12:35:25;94979.25;;;15.90;95.30
20620;BME280;10469;42.720;23.252;2023-04-09T12:37:53;95004.34;;;15.70;95.55
20620;BME280;10469;42.720;23.252;2023-04-09T12:40:22;94988.22;;;16.21;90.57
20620;BME280;10469;42.720;23.252;2023-04-09T12:43:01;94950.16;;;15.44;87.69
20620;BME280;10469;42.720;23.252;2023-04-09T12:45:32;94983.81;;;15.11;91.08
20620;BME280;10469;42.720;23.252;2023-04-09T12:48:00;94951.34;;;15.06;88.48
20620;BME280;10469;42.720;23.252;2023-04-09T12:50:35;94902.91;;;14.84;84.02
20620;BME280;10469;42.720;23.252;2023-04-09T12:53:01;94989.59;;;15.35;85.82
20620;BME280;10469;42.720;23.252;2023-04-09T12:55:27;94997.63;;;14.13;93.31
20620;BME280;10469;42.720;23.252;2023-04-09T12:57:55;94956.72;;;13.67;94.20
20620;BME280;10469;42.720;23.252;2023-04-09T13:00:30;94974.84;;;13.99;88.48
20620;BME280;10469;42.720;23.252;2023-04-09T13:03:00;94950.69;;;13.33;93.03
20620;BME280;10469;42.720;23.252;2023-04-09T13:05:25;94960.19;;;13.63;91.83
20620;BME280;10469;42.720;23.252;2023-04-09T13:07:51;94988.72;;;13.86;98.27
20620;BME280;10469;42.720;23.252;2023-04-09T13:10:17;94980.63;;;13.86;96.87
20620;BME280;10469;42.720;23.252;2023-04-09T13:12:43;94965.88;;;13.66;94.38
20620;BME280;10469;42.720;23.252;2023-04-09T13:15:09;94979.38;;;13.44;93.54
20620;BME280;10469;42.720;23.252;2023-04-09T13:17:38;94961.00;;;13.19;94.48
20620;BME280;10469;42.720;23.252;2023-04-09T13:20:04;94983.72;;;13.06;96.70
20620;BME280;10469;42.720;23.252;2023-04-09T13:22:34;94983.22;;;13.26;94.07
20620;BME280;10469;42.720;23.252;2023-04-09T13:25:02;94971.59;;;12.65;91.44
20620;BME280;10469;42.720;23.252;2023-04-09T13:27:28;94983.97;;;12.66;94.47
20620;BME280;10469;42.720;23.252;2023-04-09T13:30:00;94983.19;;;12.49;100.00
20620;BME280;10469;42.720;23.252;2023-04-09T13:32:26;94947.72;;;11.85;100.00
20620;BME280;10469;42.720;23.252;2023-04-09T13:34:52;94982.16;;;11.59;100.00
20620;BME280;10469;42.720;23.252;2023-04-09T13:37:19;94982.75;;;11.21;100.00
20620;BME280;10469;42.720;23.252;2023-04-09T13:39:45;94983.72;;;11.43;100.00
20620;BME280;10469;42.720;23.252;2023-04-09T13:42:11;94978.09;;;11.16;100.00
20620;BME280;10469;42.720;23.252;2023-04-09T13:44:38;95011.81;;;11.12;100.00
20620;BME280;10469;42.720;23.252;2023-04-09T13:47:07;94951.59;;;10.56;100.00
20620;BME280;10469;42.720;23.252;2023-04-09T13:49:35;94980.25;;;10.91;100.00
20620;BME280;10469;42.720;23.252;2023-04-09T13:52:01;94996.91;;;11.04;100.00
20620;BME280;10469;42.720;23.252;2023-04-09T13:54:29;94999.53;;;10.41;100.00
20620;BME280;10469;42.720;23.252;2023-04-09T13:56:56;94988.91;;;10.34;100.00
20620;BME280;10469;42.720;23.252;2023-04-09T13:59:21;94993.50;;;10.03;100.00
20620;BME280;10469;42.720;23.252;2023-04-09T14:01:47;94989.03;;;9.86;100.00
20620;BME280;10469;42.720;23.252;2023-04-09T14:04:13;94989.16;;;9.91;100.00
20620;BME280;10469;42.720;23.252;2023-04-09T14:06:39;94979.84;;;10.05;100.00
20620;BME280;10469;42.720;23.252;2023-04-09T14:09:07;94987.03;;;9.93;100.00
20620;BME280;10469;42.720;23.252;2023-04-09T14:11:32;94994.03;;;9.52;100.00
20620;BME280;10469;42.720;23.252;2023-04-09T14:13:58;94990.78;;;9.50;100.00
20620;BME280;10469;42.720;23.252;2023-04-09T14:16:24;94998.16;;;9.36;100.00
20620;BME280;10469;42.720;23.252;2023-04-09T14:18:50;94997.88;;;9.26;100.00
20620;BME280;10469;42.720;23.252;2023-04-09T14:21:19;94992.53;;;9.56;100.00
20620;BME280;10469;42.720;23.252;2023-04-09T14:23:44;94992.34;;;9.39;100.00
20620;BME280;10469;42.720;23.252;2023-04-09T14:26:10;94968.88;;;9.23;100.00
20620;BME280;10469;42.720;23.252;2023-04-09T14:28:38;94982.38;;;9.46;100.00
20620;BME280;10469;42.720;23.252;2023-04-09T14:31:05;94978.00;;;9.03;100.00
20620;BME280;10469;42.720;23.252;2023-04-09T14:33:31;94993.56;;;9.25;100.00
20620;BME280;10469;42.720;23.252;2023-04-09T14:35:56;94986.06;;;9.45;100.00
20620;BME280;10469;42.720;23.252;2023-04-09T14:38:23;94979.16;;;9.56;100.00
20620;BME280;10469;42.720;23.252;2023-04-09T14:40:50;94991.16;;;9.65;100.00
20620;BME280;10469;42.720;23.252;2023-04-09T15:36:15;94920.13;;;10.16;100.00
20620;BME280;10469;42.720;23.252;2023-04-09T15:38:42;94969.28;;;10.22;100.00
20620;BME280;10469;42.720;23.252;2023-04-09T15:41:07;94952.78;;;10.25;100.00
20620;BME280;10469;42.720;23.252;2023-04-09T15:43:34;94964.91;;;10.51;100.00
20620;BME280;10469;42.720;23.252;2023-04-09T15:46:08;94955.91;;;10.34;100.00
20620;BME280;10469;42.720;23.252;2023-04-09T15:48:37;94960.47;;;10.33;100.00
20620;BME280;10469;42.720;23.252;2023-04-09T15:51:03;94957.31;;;10.24;100.00
20620;BME280;10469;42.720;23.252;2023-04-09T15:53:30;94942.94;;;10.07;100.00
20620;BME280;10469;42.720;23.252;2023-04-09T15:55:57;94949.47;;;10.11;100.00
20620;BME280;10469;42.720;23.252;2023-04-09T15:58:26;94941.50;;;9.93;100.00
20620;BME280;10469;42.720;23.252;2023-04-09T16:00:56;94910.56;;;9.43;100.00
20620;BME280;10469;42.720;23.252;2023-04-09T16:03:39;94966.50;;;9.75;100.00
20620;BME280;10469;42.720;23.252;2023-04-09T16:06:12;94966.31;;;9.88;100.00
20620;BME280;10469;42.720;23.252;2023-04-09T16:08:40;94964.09;;;9.85;100.00
20620;BME280;10469;42.720;23.252;2023-04-09T16:11:06;94944.59;;;9.66;100.00
20620;BME280;10469;42.720;23.252;2023-04-09T16:13:33;94964.31;;;9.84;100.00
20620;BME280;10469;42.720;23.252;2023-04-09T16:15:59;94965.03;;;9.91;100.00
20620;BME280;10469;42.720;23.252;2023-04-09T16:18:26;94936.59;;;9.78;100.00
20620;BME280;10469;42.720;23.252;2023-04-09T16:20:57;94908.94;;;9.42;100.00
20620;BME280;10469;42.720;23.252;2023-04-09T16:23:26;94873.47;;;9.17;100.00
20620;BME280;10469;42.720;23.252;2023-04-09T16:25:52;94927.34;;;9.62;100.00
20620;BME280;10469;42.720;23.252;2023-04-09T16:28:19;94975.31;;;9.94;100.00
20620;BME280;10469;42.720;23.252;2023-04-09T16:30:49;94967.31;;;9.75;100.00
20620;BME280;10469;42.720;23.252;2023-04-09T16:33:15;94970.28;;;9.86;100.00
20620;BME280;10469;42.720;23.252;2023-04-09T16:35:41;94877.91;;;9.23;100.00
20620;BME280;10469;42.720;23.252;2023-04-09T16:38:07;94973.84;;;9.79;100.00
20620;BME280;10469;42.720;23.252;2023-04-09T16:40:33;94954.88;;;9.69;100.00
20620;BME280;10469;42.720;23.252;2023-04-09T16:43:00;94934.09;;;9.53;100.00
20620;BME280;10469;42.720;23.252;2023-04-09T16:45:30;94960.34;;;9.74;100.00
20620;BME280;10469;42.720;23.252;2023-04-09T16:47:56;94970.84;;;9.76;100.00
20620;BME280;10469;42.720;23.252;2023-04-09T16:50:23;94975.28;;;9.52;100.00
20620;BME280;10469;42.720;23.252;2023-04-09T16:52:59;94967.25;;;9.52;100.00
20620;BME280;10469;42.720;23.252;2023-04-09T16:55:29;94982.56;;;9.75;100.00
20620;BME280;10469;42.720;23.252;2023-04-09T16:57:58;94910.50;;;9.32;100.00
20620;BME280;10469;42.720;23.252;2023-04-09T17:00:25;94977.72;;;9.84;100.00
20620;BME280;10469;42.720;23.252;2023-04-09T17:02:54;94973.72;;;9.74;100.00
20620;BME280;10469;42.720;23.252;2023-04-09T17:05:22;94981.19;;;9.72;100.00
20620;BME280;10469;42.720;23.252;2023-04-09T17:07:47;94981.19;;;9.72;100.00
20620;BME280;10469;42.720;23.252;2023-04-09T17:10:13;94939.19;;;9.43;100.00
20620;BME280;10469;42.720;23.252;2023-04-09T17:12:39;94958.19;;;9.53;100.00